createdAt,value
2023-03-07T00:00:51.103Z,82.72
2023-03-07T00:01:51.134Z,82.58
2023-03-07T00:02:51.102Z,82.89
2023-03-07T00:03:51.233Z,83.14
2023-03-07T00:04:56.284Z,83.10
2023-03-07T00:05:51.054Z,83.55
2023-03-07T00:06:51.097Z,83.65
2023-03-07T00:07:51.053Z,84.17
2023-03-07T00:08:51.007Z,83.97
2023-03-07T00:09:51.008Z,84.38
2023-03-07T00:10:50.980Z,84.03
2023-03-07T00:11:50.986Z,83.47
2023-03-07T00:12:51.010Z,82.89
2023-03-07T00:13:50.953Z,83.34
2023-03-07T00:14:50.960Z,83.76
2023-03-07T00:15:50.996Z,84.17
2023-03-07T00:16:50.941Z,83.86
2023-03-07T00:17:50.910Z,84.28
2023-03-07T00:18:50.927Z,84.48
2023-03-07T00:19:50.898Z,84.23
2023-03-07T00:20:50.873Z,83.83
2023-03-07T00:21:50.867Z,83.31
2023-03-07T00:22:50.856Z,83.31
2023-03-07T00:23:50.842Z,84.07
2023-03-07T00:24:50.881Z,84.44
2023-03-07T00:25:50.822Z,83.93
2023-03-07T00:26:50.802Z,83.51
2023-03-07T00:27:50.861Z,83.00
2023-03-07T00:28:50.790Z,83.62
2023-03-07T00:29:50.781Z,83.62
2023-03-07T00:30:50.792Z,83.65
2023-03-07T00:31:50.866Z,83.93
2023-03-07T00:32:50.753Z,83.72
2023-03-07T00:33:50.735Z,83.78
2023-03-07T00:34:50.723Z,83.10
2023-03-07T00:35:50.797Z,83.97
2023-03-07T00:36:50.701Z,84.44
2023-03-07T00:37:50.703Z,83.62
2023-03-07T00:38:50.687Z,84.38
2023-03-07T00:39:55.882Z,84.55
2023-03-07T00:40:50.668Z,84.13
2023-03-07T00:41:50.713Z,84.13
2023-03-07T00:42:50.632Z,83.78
2023-03-07T00:43:50.613Z,83.72
2023-03-07T00:44:50.621Z,84.13
2023-03-07T00:45:50.635Z,84.03
2023-03-07T00:46:50.596Z,84.44
2023-03-07T00:47:50.615Z,84.69
2023-03-07T00:48:50.586Z,84.86
2023-03-07T00:49:50.840Z,83.99
2023-03-07T00:50:50.547Z,84.41
2023-03-07T00:51:50.534Z,83.89
2023-03-07T00:52:50.532Z,83.99
2023-03-07T00:53:50.541Z,84.09
2023-03-07T00:54:50.502Z,83.58
2023-03-07T00:55:50.490Z,84.28
2023-03-07T00:56:50.475Z,85.06
2023-03-07T00:57:50.488Z,84.96
2023-03-07T00:58:50.497Z,84.96
2023-03-07T00:59:50.474Z,84.20
2023-03-07T01:00:50.494Z,84.51
2023-03-07T01:01:50.438Z,84.75
2023-03-07T01:02:50.417Z,85.38
2023-03-07T01:03:50.454Z,85.17
2023-03-07T01:04:50.415Z,85.48
2023-03-07T01:05:50.391Z,85.13
2023-03-07T01:06:50.383Z,85.27
2023-03-07T01:07:50.361Z,85.48
2023-03-07T01:08:50.348Z,85.58
2023-03-07T01:09:50.345Z,85.48
2023-03-07T01:10:50.409Z,85.55
2023-03-07T01:11:50.317Z,85.17
2023-03-07T01:12:50.309Z,85.24
2023-03-07T01:13:50.287Z,85.03
2023-03-07T01:14:50.294Z,85.48
2023-03-07T01:15:50.289Z,85.69
2023-03-07T01:16:50.471Z,85.79
2023-03-07T01:17:50.257Z,86.21
2023-03-07T01:18:50.241Z,85.48
2023-03-07T01:19:50.228Z,85.89
2023-03-07T01:20:50.209Z,86.04
2023-03-07T01:21:50.217Z,86.41
2023-03-07T01:22:50.244Z,86.25
2023-03-07T01:23:50.202Z,87.04
2023-03-07T01:24:50.181Z,86.45
2023-03-07T01:25:50.168Z,86.83
2023-03-07T01:26:50.151Z,86.52
2023-03-07T01:27:50.184Z,86.47
2023-03-07T01:28:50.135Z,85.86
2023-03-07T01:29:50.131Z,85.24
2023-03-07T01:30:50.110Z,85.44
2023-03-07T01:31:50.170Z,85.65
2023-03-07T01:32:50.137Z,85.24
2023-03-07T01:33:50.111Z,85.89
2023-03-07T01:34:50.094Z,86.07
2023-03-07T01:35:50.107Z,86.17
2023-03-07T01:36:50.095Z,85.75
2023-03-07T01:37:50.059Z,86.17
2023-03-07T01:38:50.051Z,86.58
2023-03-07T01:39:50.018Z,86.62
2023-03-07T01:40:50.025Z,87.66
2023-03-07T01:41:50.002Z,87.66
2023-03-07T01:42:50.073Z,87.62
2023-03-07T01:43:49.985Z,86.85
2023-03-07T01:44:49.970Z,86.37
2023-03-07T01:45:50.043Z,86.02
2023-03-07T01:46:49.941Z,86.17
2023-03-07T01:47:49.934Z,86.99
2023-03-07T01:48:49.940Z,86.99
2023-03-07T01:49:49.983Z,87.14
2023-03-07T01:50:49.934Z,87.51
2023-03-07T01:51:49.892Z,87.30
2023-03-07T01:52:49.860Z,87.20
2023-03-07T01:53:49.872Z,87.20
2023-03-07T01:54:49.849Z,86.68
2023-03-07T01:55:49.958Z,87.82
2023-03-07T01:56:49.836Z,87.72
2023-03-07T01:57:49.830Z,87.62
2023-03-07T01:58:49.804Z,87.97
2023-03-07T01:59:49.798Z,89.00
2023-03-07T02:00:49.799Z,88.76
2023-03-07T02:01:49.808Z,87.93
2023-03-07T02:02:49.762Z,88.03
2023-03-07T02:03:49.768Z,87.93
2023-03-07T02:04:49.747Z,87.41
2023-03-07T02:05:49.787Z,88.24
2023-03-07T02:06:49.717Z,87.93
2023-03-07T02:07:49.753Z,87.57
2023-03-07T02:08:49.699Z,88.34
2023-03-07T02:09:49.690Z,88.13
2023-03-07T02:10:49.750Z,88.55
2023-03-07T02:11:49.662Z,88.55
2023-03-07T02:12:49.660Z,88.03
2023-03-07T02:13:49.688Z,88.45
2023-03-07T02:14:49.635Z,89.21
2023-03-07T02:15:49.647Z,89.00
2023-03-07T02:16:49.620Z,89.31
2023-03-07T02:17:49.589Z,89.48
2023-03-07T02:18:49.581Z,89.42
2023-03-07T02:19:49.590Z,89.62
2023-03-07T02:20:49.603Z,89.58
2023-03-07T02:21:49.548Z,89.69
2023-03-07T02:22:49.542Z,89.52
2023-03-07T02:23:49.539Z,90.00
2023-03-07T02:24:49.556Z,90.35
2023-03-07T02:25:49.533Z,90.20
2023-03-07T02:26:49.502Z,89.94
2023-03-07T02:27:49.493Z,90.45
2023-03-07T02:28:49.484Z,90.56
2023-03-07T02:29:49.485Z,90.25
2023-03-07T02:30:49.515Z,90.31
2023-03-07T02:31:49.461Z,90.10
2023-03-07T02:32:49.441Z,90.25
2023-03-07T02:33:49.419Z,90.14
2023-03-07T02:34:49.419Z,90.35
2023-03-07T02:35:49.441Z,90.31
2023-03-07T02:36:49.401Z,90.31
2023-03-07T02:37:49.377Z,90.00
2023-03-07T02:38:49.380Z,90.56
2023-03-07T02:39:49.391Z,90.45
2023-03-07T02:40:49.353Z,91.08
2023-03-07T02:41:49.368Z,90.66
2023-03-07T02:42:49.324Z,91.43
2023-03-07T02:43:49.303Z,92.16
2023-03-07T02:44:49.305Z,92.11
2023-03-07T02:45:49.304Z,92.11
2023-03-07T02:46:49.285Z,91.80
2023-03-07T02:47:49.283Z,91.49
2023-03-07T02:48:49.260Z,92.01
2023-03-07T02:49:49.245Z,91.91
2023-03-07T02:50:49.258Z,91.91
2023-03-07T02:51:49.251Z,91.97
2023-03-07T02:52:49.252Z,91.45
2023-03-07T02:53:49.202Z,91.39
2023-03-07T02:54:49.205Z,91.45
2023-03-07T02:55:49.172Z,90.83
2023-03-07T02:56:49.172Z,91.80
2023-03-07T02:57:49.153Z,92.01
2023-03-07T02:58:49.197Z,92.22
2023-03-07T02:59:49.146Z,92.69
2023-03-07T03:00:49.155Z,91.86
2023-03-07T03:01:49.182Z,92.47
2023-03-07T03:02:49.106Z,93.46
2023-03-07T03:03:49.157Z,92.74
2023-03-07T03:04:49.117Z,92.43
2023-03-07T03:05:49.102Z,92.01
2023-03-07T03:06:49.058Z,92.59
2023-03-07T03:07:49.083Z,92.59
2023-03-07T03:08:49.042Z,92.01
2023-03-07T03:09:49.079Z,92.94
2023-03-07T03:10:49.030Z,93.00
2023-03-07T03:11:49.049Z,92.53
2023-03-07T03:12:49.030Z,93.25
2023-03-07T03:13:48.990Z,93.15
2023-03-07T03:14:48.990Z,93.66
2023-03-07T03:15:49.098Z,92.94
2023-03-07T03:16:48.960Z,93.00
2023-03-07T03:17:48.965Z,92.38
2023-03-07T03:18:48.940Z,91.86
2023-03-07T03:19:48.952Z,92.07
2023-03-07T03:20:48.911Z,92.28
2023-03-07T03:21:48.964Z,92.22
2023-03-07T03:22:48.892Z,92.28
2023-03-07T03:23:48.894Z,92.59
2023-03-07T03:24:48.877Z,92.22
2023-03-07T03:25:48.862Z,92.69
2023-03-07T03:26:48.933Z,92.38
2023-03-07T03:27:48.858Z,91.76
2023-03-07T03:28:48.835Z,91.55
2023-03-07T03:29:48.824Z,92.53
2023-03-07T03:30:48.834Z,92.28
2023-03-07T03:31:48.794Z,92.80
2023-03-07T03:32:48.803Z,91.86
2023-03-07T03:33:48.779Z,92.28
2023-03-07T03:34:48.760Z,92.24
2023-03-07T03:35:48.773Z,91.61
2023-03-07T03:36:48.730Z,90.89
2023-03-07T03:37:48.777Z,91.20
2023-03-07T03:38:48.730Z,91.30
2023-03-07T03:39:48.717Z,91.72
2023-03-07T03:40:48.702Z,91.36
2023-03-07T03:41:48.720Z,90.74
2023-03-07T03:42:48.699Z,91.09
2023-03-07T03:43:48.687Z,91.51
2023-03-07T03:44:48.650Z,91.26
2023-03-07T03:45:48.632Z,91.05
2023-03-07T03:46:48.723Z,90.74
2023-03-07T03:47:48.658Z,90.58
2023-03-07T03:48:48.616Z,91.61
2023-03-07T03:49:48.635Z,91.51
2023-03-07T03:50:48.585Z,91.16
2023-03-07T03:51:48.592Z,90.44
2023-03-07T03:52:48.571Z,90.72
2023-03-07T03:53:48.552Z,91.76
2023-03-07T03:54:48.533Z,92.24
2023-03-07T03:55:48.623Z,91.93
2023-03-07T03:56:48.523Z,91.93
2023-03-07T03:57:48.514Z,91.82
2023-03-07T03:58:48.516Z,92.24
2023-03-07T03:59:48.525Z,91.66
2023-03-07T04:00:48.485Z,92.65
2023-03-07T04:01:48.563Z,92.03
2023-03-07T04:02:48.535Z,91.61
2023-03-07T04:03:48.453Z,91.93
2023-03-07T04:04:48.423Z,91.72
2023-03-07T04:05:48.417Z,92.13
2023-03-07T04:06:48.402Z,91.61
2023-03-07T04:07:48.440Z,92.24
2023-03-07T04:08:48.406Z,92.44
2023-03-07T04:09:48.385Z,91.57
2023-03-07T04:10:48.383Z,90.84
2023-03-07T04:11:48.360Z,90.95
2023-03-07T04:12:48.341Z,90.89
2023-03-07T04:13:48.361Z,91.72
2023-03-07T04:14:48.326Z,91.61
2023-03-07T04:15:48.304Z,91.82
2023-03-07T04:16:48.360Z,91.72
2023-03-07T04:17:48.293Z,91.93
2023-03-07T04:18:48.342Z,91.30
2023-03-07T04:19:48.284Z,90.95
2023-03-07T04:20:48.247Z,91.57
2023-03-07T04:21:48.255Z,91.47
2023-03-07T04:22:48.273Z,90.74
2023-03-07T04:23:48.221Z,90.99
2023-03-07T04:24:48.230Z,91.47
2023-03-07T04:25:48.262Z,90.95
2023-03-07T04:26:48.197Z,91.16
2023-03-07T04:27:48.191Z,90.80
2023-03-07T04:28:48.164Z,90.08
2023-03-07T04:29:48.206Z,90.44
2023-03-07T04:30:48.140Z,91.26
2023-03-07T04:31:48.190Z,90.91
2023-03-07T04:32:48.111Z,90.12
2023-03-07T04:33:48.145Z,91.47
2023-03-07T04:34:48.119Z,91.16
2023-03-07T04:35:48.202Z,91.61
2023-03-07T04:36:48.072Z,90.95
2023-03-07T04:37:48.064Z,91.05
2023-03-07T04:38:48.090Z,91.36
2023-03-07T04:39:48.051Z,90.95
2023-03-07T04:40:51.557Z,90.64
2023-03-07T04:41:48.025Z,90.95
2023-03-07T04:42:48.014Z,90.44
2023-03-07T04:43:48.013Z,90.02
2023-03-07T04:44:47.992Z,90.53
2023-03-07T04:45:48.043Z,90.53
2023-03-07T04:46:48.227Z,91.41
2023-03-07T04:47:47.955Z,91.20
2023-03-07T04:48:47.942Z,91.30
2023-03-07T04:49:47.954Z,91.67
2023-03-07T04:50:47.925Z,90.33
2023-03-07T04:51:47.956Z,91.05
2023-03-07T04:52:47.985Z,90.64
2023-03-07T04:53:47.901Z,91.09
2023-03-07T04:54:47.883Z,91.41
2023-03-07T04:55:47.866Z,91.55
2023-03-07T04:56:47.876Z,92.18
2023-03-07T04:57:47.850Z,92.44
2023-03-07T04:58:47.926Z,92.44
2023-03-07T04:59:47.828Z,91.67
2023-03-07T05:00:47.819Z,91.26
2023-03-07T05:01:47.808Z,91.36
2023-03-07T05:02:47.808Z,90.95
2023-03-07T05:03:47.797Z,90.47
2023-03-07T05:04:47.804Z,91.93
2023-03-07T05:05:47.765Z,92.34
2023-03-07T05:06:47.779Z,91.41
2023-03-07T05:07:47.734Z,91.51
2023-03-07T05:08:47.730Z,92.34
2023-03-07T05:09:47.735Z,92.19
2023-03-07T05:10:47.746Z,91.16
2023-03-07T05:11:47.704Z,90.99
2023-03-07T05:12:47.706Z,91.41
2023-03-07T05:13:47.708Z,91.82
2023-03-07T05:14:47.666Z,91.82
2023-03-07T05:15:47.685Z,91.93
2023-03-07T05:16:47.746Z,91.72
2023-03-07T05:17:47.638Z,91.93
2023-03-07T05:18:47.650Z,91.61
2023-03-07T05:19:47.619Z,91.82
2023-03-07T05:20:47.606Z,92.03
2023-03-07T05:21:47.786Z,91.51
2023-03-07T05:22:47.617Z,91.97
2023-03-07T05:23:47.591Z,91.82
2023-03-07T05:24:47.582Z,91.61
2023-03-07T05:25:47.577Z,91.67
2023-03-07T05:26:47.569Z,90.95
2023-03-07T05:27:47.574Z,91.16
2023-03-07T05:28:47.504Z,90.84
2023-03-07T05:29:47.499Z,91.41
2023-03-07T05:30:47.529Z,92.03
2023-03-07T05:31:47.479Z,91.88
2023-03-07T05:32:47.480Z,91.57
2023-03-07T05:33:47.490Z,91.16
2023-03-07T05:34:47.469Z,91.05
2023-03-07T05:35:47.476Z,90.64
2023-03-07T05:36:47.433Z,91.51
2023-03-07T05:37:47.427Z,91.26
2023-03-07T05:38:47.398Z,91.30
2023-03-07T05:39:47.441Z,91.67
2023-03-07T05:40:47.377Z,91.57
2023-03-07T05:41:47.396Z,90.60
2023-03-07T05:42:47.381Z,90.74
2023-03-07T05:43:47.337Z,90.39
2023-03-07T05:44:47.345Z,90.64
2023-03-07T05:45:47.339Z,90.44
2023-03-07T05:46:47.309Z,91.41
2023-03-07T05:47:47.331Z,91.67
2023-03-07T05:48:47.299Z,91.88
2023-03-07T05:49:47.280Z,91.36
2023-03-07T05:50:47.300Z,91.05
2023-03-07T05:51:47.273Z,91.57
2023-03-07T05:52:47.244Z,90.74
2023-03-07T05:53:47.255Z,91.88
2023-03-07T05:54:47.234Z,91.88
2023-03-07T05:55:47.215Z,91.88
2023-03-07T05:56:47.250Z,92.09
2023-03-07T05:57:47.202Z,91.57
2023-03-07T05:58:47.196Z,91.05
2023-03-07T05:59:47.162Z,91.36
2023-03-07T06:00:47.177Z,91.57
2023-03-07T06:01:47.143Z,91.67
2023-03-07T06:02:47.260Z,91.32
2023-03-07T06:03:47.158Z,91.11
2023-03-07T06:04:47.128Z,90.50
2023-03-07T06:05:47.156Z,91.47
2023-03-07T06:06:47.099Z,91.22
2023-03-07T06:07:47.121Z,90.91
2023-03-07T06:08:47.090Z,90.45
2023-03-07T06:09:47.073Z,89.94
2023-03-07T06:10:47.054Z,89.77
2023-03-07T06:11:47.053Z,91.16
2023-03-07T06:12:47.023Z,91.53
2023-03-07T06:13:47.022Z,91.11
2023-03-07T06:14:47.097Z,90.80
2023-03-07T06:15:47.049Z,91.63
2023-03-07T06:16:46.997Z,90.95
2023-03-07T06:17:46.983Z,91.32
2023-03-07T06:18:46.951Z,90.84
2023-03-07T06:19:46.954Z,91.78
2023-03-07T06:20:47.020Z,91.88
2023-03-07T06:21:46.942Z,91.32
2023-03-07T06:22:46.933Z,90.56
2023-03-07T06:23:46.907Z,89.62
2023-03-07T06:24:46.933Z,89.94
2023-03-07T06:25:46.882Z,89.94
2023-03-07T06:26:46.894Z,89.83
2023-03-07T06:27:46.852Z,89.62
2023-03-07T06:28:46.857Z,89.62
2023-03-07T06:29:46.851Z,89.77
2023-03-07T06:30:46.854Z,91.01
2023-03-07T06:31:46.903Z,90.87
2023-03-07T06:32:46.821Z,90.25
2023-03-07T06:33:46.794Z,89.83
2023-03-07T06:34:46.777Z,89.83
2023-03-07T06:35:46.810Z,89.94
2023-03-07T06:36:46.763Z,90.00
2023-03-07T06:37:46.793Z,89.52
2023-03-07T06:38:46.734Z,89.42
2023-03-07T06:39:46.928Z,89.42
2023-03-07T06:40:46.715Z,89.52
2023-03-07T06:41:46.740Z,89.28
2023-03-07T06:42:46.707Z,88.80
2023-03-07T06:43:46.735Z,89.22
2023-03-07T06:44:46.722Z,89.42
2023-03-07T06:45:46.690Z,89.32
2023-03-07T06:46:46.653Z,89.28
2023-03-07T06:47:46.637Z,88.65
2023-03-07T06:48:46.629Z,88.59
2023-03-07T06:49:46.638Z,89.22
2023-03-07T06:50:46.595Z,88.86
2023-03-07T06:51:46.614Z,88.39
2023-03-07T06:52:46.606Z,89.07
2023-03-07T06:53:46.580Z,88.59
2023-03-07T06:54:46.604Z,88.86
2023-03-07T06:55:46.571Z,89.01
2023-03-07T06:56:46.552Z,89.07
2023-03-07T06:57:46.531Z,88.86
2023-03-07T06:58:46.594Z,87.89
2023-03-07T06:59:46.529Z,87.93
2023-03-07T07:00:46.548Z,87.73
2023-03-07T07:01:46.564Z,87.68
2023-03-07T07:02:46.530Z,87.17
2023-03-07T07:03:46.479Z,87.62
2023-03-07T07:04:46.470Z,87.48
2023-03-07T07:05:46.472Z,86.86
2023-03-07T07:06:46.424Z,86.86
2023-03-07T07:07:46.398Z,86.96
2023-03-07T07:08:46.396Z,86.96
2023-03-07T07:09:46.402Z,87.10
2023-03-07T07:10:46.381Z,87.58
2023-03-07T07:11:46.406Z,87.17
2023-03-07T07:12:46.348Z,87.76
2023-03-07T07:13:46.331Z,88.04
2023-03-07T07:14:46.341Z,87.37
2023-03-07T07:15:46.323Z,87.37
2023-03-07T07:16:46.386Z,87.27
2023-03-07T07:17:46.318Z,86.96
2023-03-07T07:18:46.280Z,87.37
2023-03-07T07:19:46.282Z,86.86
2023-03-07T07:20:46.249Z,86.96
2023-03-07T07:21:46.237Z,87.23
2023-03-07T07:22:46.245Z,86.20
2023-03-07T07:23:46.249Z,86.96
2023-03-07T07:24:46.222Z,86.61
2023-03-07T07:25:46.211Z,86.51
2023-03-07T07:26:46.180Z,86.41
2023-03-07T07:27:46.187Z,85.58
2023-03-07T07:28:46.198Z,86.03
2023-03-07T07:29:46.228Z,86.44
2023-03-07T07:30:46.139Z,86.79
2023-03-07T07:31:46.182Z,87.62
2023-03-07T07:32:46.238Z,87.48
2023-03-07T07:33:46.130Z,86.86
2023-03-07T07:34:46.177Z,85.78
2023-03-07T07:35:46.380Z,85.72
2023-03-07T07:36:46.072Z,86.55
2023-03-07T07:37:46.072Z,86.65
2023-03-07T07:38:46.054Z,85.93
2023-03-07T07:39:46.041Z,86.20
2023-03-07T07:40:46.364Z,85.47
2023-03-07T07:41:46.040Z,84.92
2023-03-07T07:42:46.024Z,84.96
2023-03-07T07:43:46.018Z,84.96
2023-03-07T07:44:46.001Z,85.13
2023-03-07T07:45:46.074Z,84.61
2023-03-07T07:46:46.019Z,83.64
2023-03-07T07:47:45.956Z,83.78
2023-03-07T07:48:45.950Z,83.68
2023-03-07T07:49:45.996Z,83.75
2023-03-07T07:50:45.922Z,82.92
2023-03-07T07:51:45.926Z,83.33
2023-03-07T07:52:45.950Z,83.03
2023-03-07T07:53:45.894Z,83.03
2023-03-07T07:54:45.872Z,83.44
2023-03-07T07:55:45.876Z,83.44
2023-03-07T07:56:45.874Z,82.98
2023-03-07T07:57:45.872Z,82.68
2023-03-07T07:58:45.827Z,83.13
2023-03-07T07:59:45.872Z,83.31
2023-03-07T08:00:45.847Z,83.99
2023-03-07T08:01:45.792Z,83.95
2023-03-07T08:02:45.809Z,83.33
2023-03-07T08:03:45.882Z,82.68
2023-03-07T08:04:45.760Z,82.47
2023-03-07T08:05:45.778Z,82.40
2023-03-07T08:06:45.742Z,82.40
2023-03-07T08:07:45.758Z,81.96
2023-03-07T08:08:45.733Z,81.96
2023-03-07T08:09:45.740Z,82.30
2023-03-07T08:10:45.702Z,82.26
2023-03-07T08:11:45.681Z,82.40
2023-03-07T08:12:45.670Z,82.40
2023-03-07T08:13:45.677Z,82.51
2023-03-07T08:14:45.669Z,83.13
2023-03-07T08:15:45.700Z,81.99
2023-03-07T08:16:45.637Z,82.20
2023-03-07T08:17:45.614Z,82.47
2023-03-07T08:18:45.612Z,81.13
2023-03-07T08:19:45.633Z,81.20
2023-03-07T08:20:45.621Z,81.20
2023-03-07T08:21:45.586Z,80.23
2023-03-07T08:22:45.581Z,79.82
2023-03-07T08:23:45.552Z,79.79
2023-03-07T08:24:45.544Z,79.75
2023-03-07T08:25:45.536Z,80.16
2023-03-07T08:26:45.563Z,81.03
2023-03-07T08:27:45.515Z,80.89
2023-03-07T08:28:45.499Z,80.37
2023-03-07T08:29:45.480Z,80.65
2023-03-07T08:30:45.479Z,80.93
2023-03-07T08:31:45.495Z,80.34
2023-03-07T08:32:45.543Z,81.89
2023-03-07T08:33:45.434Z,81.79
2023-03-07T08:34:45.447Z,81.13
2023-03-07T08:35:45.439Z,80.72
2023-03-07T08:36:45.433Z,81.07
2023-03-07T08:37:45.395Z,81.23
2023-03-07T08:38:45.407Z,80.96
2023-03-07T08:39:45.398Z,81.37
2023-03-07T08:40:45.367Z,81.13
2023-03-07T08:41:45.396Z,80.37
2023-03-07T08:42:45.386Z,79.48
2023-03-07T08:43:45.360Z,80.55
2023-03-07T08:44:45.332Z,80.41
2023-03-07T08:45:45.308Z,80.10
2023-03-07T08:46:45.315Z,80.10
2023-03-07T08:47:45.296Z,79.86
2023-03-07T08:48:45.721Z,79.44
2023-03-07T08:49:45.296Z,79.58
2023-03-07T08:50:45.246Z,79.75
2023-03-07T08:51:45.247Z,79.34
2023-03-07T08:52:45.237Z,79.27
2023-03-07T08:53:45.204Z,79.27
2023-03-07T08:54:45.201Z,80.04
2023-03-07T08:55:45.231Z,80.00
2023-03-07T08:56:45.187Z,80.41
2023-03-07T08:57:45.203Z,79.75
2023-03-07T08:58:45.173Z,78.48
2023-03-07T08:59:45.154Z,78.86
2023-03-07T09:00:45.137Z,77.97
2023-03-07T09:01:45.186Z,78.11
2023-03-07T09:02:45.114Z,79.14
2023-03-07T09:03:45.100Z,78.69
2023-03-07T09:04:45.120Z,78.55
2023-03-07T09:05:45.072Z,78.03
2023-03-07T09:06:45.090Z,77.62
2023-03-07T09:07:45.060Z,78.79
2023-03-07T09:08:45.036Z,78.38
2023-03-07T09:09:45.050Z,78.10
2023-03-07T09:10:45.030Z,76.97
2023-03-07T09:11:45.006Z,77.42
2023-03-07T09:12:45.017Z,77.07
2023-03-07T09:13:51.810Z,77.17
2023-03-07T09:14:45.961Z,77.17
2023-03-07T09:15:44.954Z,77.55
2023-03-07T09:16:44.944Z,76.31
2023-03-07T09:17:44.948Z,75.49
2023-03-07T09:18:44.952Z,75.94
2023-03-07T09:19:44.929Z,76.14
2023-03-07T09:20:44.906Z,75.80
2023-03-07T09:21:44.904Z,75.94
2023-03-07T09:22:44.875Z,75.49
2023-03-07T09:23:45.236Z,75.59
2023-03-07T09:24:44.914Z,75.22
2023-03-07T09:25:44.859Z,75.76
2023-03-07T09:26:44.837Z,74.80
2023-03-07T09:27:44.826Z,74.19
2023-03-07T09:28:44.837Z,74.05
2023-03-07T09:29:44.804Z,73.74
2023-03-07T09:30:44.812Z,73.02
2023-03-07T09:31:44.847Z,72.41
2023-03-07T09:32:44.792Z,73.13
2023-03-07T09:33:46.634Z,73.06
2023-03-07T09:34:44.746Z,73.54
2023-03-07T09:35:44.870Z,73.30
2023-03-07T09:36:44.799Z,73.91
2023-03-07T09:37:44.730Z,73.19
2023-03-07T09:38:44.707Z,73.85
2023-03-07T09:39:44.693Z,72.96
2023-03-07T09:40:44.678Z,73.85
2023-03-07T09:41:44.704Z,73.27
2023-03-07T09:42:44.883Z,72.55
2023-03-07T09:43:44.709Z,72.31
2023-03-07T09:44:44.630Z,73.23
2023-03-07T09:45:44.747Z,72.51
2023-03-07T09:46:45.833Z,72.03
2023-03-07T09:47:44.615Z,70.70
2023-03-07T09:48:44.610Z,70.90
2023-03-07T09:49:44.601Z,70.29
2023-03-07T09:50:44.574Z,69.19
2023-03-07T09:51:44.575Z,69.37
2023-03-07T09:52:44.843Z,68.62
2023-03-07T09:53:44.561Z,68.65
2023-03-07T09:54:44.535Z,69.84
2023-03-07T09:55:44.511Z,68.54
2023-03-07T09:56:44.511Z,67.52
2023-03-07T09:57:44.487Z,68.00
2023-03-07T09:58:44.503Z,67.21
2023-03-07T09:59:44.486Z,68.72
2023-03-07T10:00:44.454Z,68.07
2023-03-07T10:01:44.453Z,67.56
2023-03-07T10:02:44.713Z,66.90
2023-03-07T10:03:44.482Z,67.83
2023-03-07T10:04:44.566Z,66.25
2023-03-07T10:05:44.441Z,66.94
2023-03-07T10:06:44.391Z,67.11
2023-03-07T10:07:44.394Z,66.22
2023-03-07T10:08:44.375Z,68.17
2023-03-07T10:09:44.397Z,67.59
2023-03-07T10:10:44.389Z,67.00
2023-03-07T10:11:44.377Z,66.63
2023-03-07T10:12:44.371Z,68.34
2023-03-07T10:13:44.307Z,67.90
2023-03-07T10:14:44.304Z,66.84
2023-03-07T10:15:44.408Z,65.58
2023-03-07T10:16:44.352Z,65.58
2023-03-07T10:17:44.259Z,66.39
2023-03-07T10:18:44.256Z,66.87
2023-03-07T10:19:44.237Z,67.59
2023-03-07T10:20:44.434Z,67.03
2023-03-07T10:21:44.248Z,67.03
2023-03-07T10:22:44.224Z,67.69
2023-03-07T10:23:44.208Z,67.73
2023-03-07T10:24:44.178Z,66.12
2023-03-07T10:25:44.192Z,66.84
2023-03-07T10:26:44.269Z,67.52
2023-03-07T10:27:44.177Z,67.60
2023-03-07T10:28:44.193Z,67.32
2023-03-07T10:29:44.118Z,69.81
2023-03-07T10:30:44.169Z,69.70
2023-03-07T10:31:44.195Z,69.64
2023-03-07T10:32:44.150Z,68.99
2023-03-07T10:33:44.146Z,69.70
2023-03-07T10:34:44.085Z,69.88
2023-03-07T10:35:44.082Z,70.29
2023-03-07T10:36:44.048Z,69.84
2023-03-07T10:37:44.054Z,69.84
2023-03-07T10:38:44.046Z,69.17
2023-03-07T10:39:44.015Z,69.98
2023-03-07T10:40:44.010Z,68.65
2023-03-07T10:41:43.985Z,69.84
2023-03-07T10:42:43.978Z,71.45
2023-03-07T10:43:43.959Z,69.89
2023-03-07T10:44:43.986Z,69.44
2023-03-07T10:45:43.970Z,68.93
2023-03-07T10:46:54.975Z,68.96
2023-03-07T10:47:44.923Z,69.02
2023-03-07T10:48:43.935Z,69.47
2023-03-07T10:49:43.889Z,70.05
2023-03-07T10:50:43.910Z,70.26
2023-03-07T10:51:43.866Z,71.08
2023-03-07T10:52:43.867Z,71.39
2023-03-07T10:53:43.848Z,70.94
2023-03-07T10:54:43.863Z,70.43
2023-03-07T10:55:43.910Z,69.51
2023-03-07T10:56:43.838Z,70.73
2023-03-07T10:57:43.810Z,69.84
2023-03-07T10:58:43.800Z,71.18
2023-03-07T10:59:43.803Z,71.69
2023-03-07T11:00:43.765Z,70.67
2023-03-07T11:01:43.913Z,70.08
2023-03-07T11:02:43.756Z,70.18
2023-03-07T11:03:52.678Z,70.77
2023-03-07T11:04:44.776Z,69.60
2023-03-07T11:05:43.736Z,70.90
2023-03-07T11:06:43.705Z,69.71
2023-03-07T11:07:43.754Z,68.48
2023-03-07T11:08:43.676Z,68.68
2023-03-07T11:09:43.672Z,69.29
2023-03-07T11:10:43.655Z,69.88
2023-03-07T11:11:43.668Z,69.57
2023-03-07T11:12:43.637Z,69.33
2023-03-07T11:13:43.676Z,68.89
2023-03-07T11:14:43.631Z,67.66
2023-03-07T11:15:43.622Z,68.52
2023-03-07T11:16:43.688Z,68.21
2023-03-07T11:17:43.586Z,67.62
2023-03-07T11:18:43.566Z,68.62
2023-03-07T11:19:43.637Z,68.65
2023-03-07T11:20:43.539Z,68.52
2023-03-07T11:21:43.532Z,68.41
2023-03-07T11:22:43.556Z,67.80
2023-03-07T11:23:43.539Z,66.71
2023-03-07T11:24:43.515Z,67.22
2023-03-07T11:25:43.558Z,66.56
2023-03-07T11:26:43.479Z,67.08
2023-03-07T11:27:43.472Z,68.00
2023-03-07T11:28:43.454Z,67.86
2023-03-07T11:29:43.447Z,66.30
2023-03-07T11:30:43.495Z,66.22
2023-03-07T11:31:43.421Z,65.81
2023-03-07T11:32:43.450Z,65.71
2023-03-07T11:33:56.694Z,67.05
2023-03-07T11:34:44.388Z,65.55
2023-03-07T11:35:43.390Z,65.52
2023-03-07T11:36:43.419Z,66.03
2023-03-07T11:37:43.363Z,65.66
2023-03-07T11:38:43.347Z,63.41
2023-03-07T11:39:43.347Z,62.80
2023-03-07T11:40:43.325Z,62.39
2023-03-07T11:41:43.336Z,63.10
2023-03-07T11:42:43.332Z,62.90
2023-03-07T11:43:43.290Z,62.59
2023-03-07T11:44:43.294Z,62.83
2023-03-07T11:45:43.285Z,62.96
2023-03-07T11:46:43.302Z,63.24
2023-03-07T11:47:43.277Z,62.88
2023-03-07T11:48:43.251Z,63.60
2023-03-07T11:49:43.227Z,64.09
2023-03-07T11:50:43.213Z,63.09
2023-03-07T11:51:43.216Z,62.99
2023-03-07T11:52:43.183Z,62.99
2023-03-07T11:53:45.697Z,63.50
2023-03-07T11:54:43.162Z,63.50
2023-03-07T11:55:43.144Z,63.70
2023-03-07T11:56:43.157Z,63.20
2023-03-07T11:57:43.136Z,62.81
2023-03-07T11:58:43.117Z,62.51
2023-03-07T11:59:43.146Z,63.43
2023-03-07T12:00:43.098Z,62.74
2023-03-07T12:01:43.119Z,62.37
2023-03-07T12:02:43.127Z,61.93
2023-03-07T12:03:43.071Z,62.24
2023-03-07T12:04:43.074Z,62.32
2023-03-07T12:05:43.133Z,63.03
2023-03-07T12:06:43.033Z,62.83
2023-03-07T12:07:43.009Z,63.13
2023-03-07T12:08:42.991Z,63.43
2023-03-07T12:09:42.989Z,64.14
2023-03-07T12:10:43.037Z,64.69
2023-03-07T12:11:42.969Z,64.69
2023-03-07T12:12:42.951Z,64.48
2023-03-07T12:13:42.958Z,64.25
2023-03-07T12:14:42.920Z,64.35
2023-03-07T12:15:42.939Z,63.40
2023-03-07T12:16:42.988Z,62.88
2023-03-07T12:17:42.907Z,63.37
2023-03-07T12:18:42.884Z,63.70
2023-03-07T12:19:42.872Z,63.43
2023-03-07T12:20:42.863Z,63.12
2023-03-07T12:21:42.863Z,63.20
2023-03-07T12:22:42.897Z,62.58
2023-03-07T12:23:42.840Z,63.12
2023-03-07T12:24:42.824Z,62.26
2023-03-07T12:25:42.840Z,62.61
2023-03-07T12:26:42.838Z,62.23
2023-03-07T12:27:42.789Z,62.02
2023-03-07T12:28:42.796Z,62.07
2023-03-07T12:29:42.781Z,62.07
2023-03-07T12:30:42.746Z,61.48
2023-03-07T12:31:42.846Z,61.69
2023-03-07T12:32:42.904Z,62.17
2023-03-07T12:33:43.994Z,62.17
2023-03-07T12:34:42.757Z,61.11
2023-03-07T12:35:42.706Z,61.73
2023-03-07T12:36:42.793Z,60.17
2023-03-07T12:37:42.706Z,60.30
2023-03-07T12:38:42.672Z,60.78
2023-03-07T12:39:42.713Z,60.33
2023-03-07T12:40:42.635Z,60.19
2023-03-07T12:41:42.651Z,60.19
2023-03-07T12:42:42.623Z,60.12
2023-03-07T12:43:42.607Z,61.22
2023-03-07T12:44:42.609Z,60.30
2023-03-07T12:45:42.865Z,60.50
2023-03-07T12:46:42.633Z,60.30
2023-03-07T12:47:42.578Z,61.09
2023-03-07T12:48:42.552Z,60.58
2023-03-07T12:49:49.730Z,60.60
2023-03-07T12:50:43.562Z,61.22
2023-03-07T12:51:42.529Z,61.29
2023-03-07T12:52:42.500Z,60.68